Kingshill, Virgin Islands
Current Conditions -  °F | °C
As of 11:53 PM on Sunday 19 Oct 2014 (Local Time) from TISX Reporting Station
Clear Clear  
Wind Chill: 76°   Ceiling: Unl
Heat Index: 76°   Visibility: 10mi
Dew Point: 73°   Wind: 5mph
Humidity: 91%   Direction: 360°N
Pressure: 29.97"   Gusts: NA
Location:  17.72°N, 64.78°W
Report Text: TISX 200353Z AUTO 36004KT 10SM CLR 24/23 A2997 RMK AO2 SLP146 T02440228 403110239 TSNO $
Loading
Personal Weather Stations






























Interactive Weather Map New forecast layout! Learn more

10-Day Weather Forecast

Advertisements
Track Severe Weather on mobile